Time;durP1;ratioP1;P1;durP2;ratioP2;P2;SDS_P1;SDS_P2;PMS_P1;PMS_P2;Temp;Humidity;BMP_temperature;BMP_pressure;BME280_temperature;BME280_humidity;BME280_pressure;Samples;Min_cycle;Max_cycle;Signal;HPM_P1;HPM_P2
2022/08/22 00:00:34;;;;;;;0.00;0.00;;;12.10;92.70;;;;;;5038090;28;20037;-73
2022/08/22 00:03:19;;;;;;;0.00;0.00;;;11.90;93.20;;;;;;5037391;28;20124;-72
2022/08/22 00:06:27;;;;;;;0.00;0.00;;;12.00;95.00;;;;;;5041255;28;20525;-72
2022/08/22 00:08:56;;;;;;;0.00;0.00;;;11.70;98.10;;;;;;5016846;28;20056;-72
2022/08/22 00:11:53;;;;;;;0.00;0.00;;;11.70;99.90;;;;;;5041108;28;20056;-72
2022/08/22 00:14:31;;;;;;;0.00;0.00;;;11.60;99.90;;;;;;5043330;28;20021;-73
2022/08/22 00:17:33;;;;;;;0.00;0.00;;;11.60;99.90;;;;;;5043430;28;20416;-72
2022/08/22 00:20:12;;;;;;;0.00;0.00;;;11.60;99.90;;;;;;5040562;28;20029;-75
2022/08/22 00:23:10;;;;;;;0.00;0.00;;;11.50;99.90;;;;;;5041039;28;20528;-74
2022/08/22 00:26:01;;;;;;;0.00;0.00;;;11.50;99.90;;;;;;5039889;28;20037;-72
2022/08/22 00:28:47;;;;;;;0.00;0.00;;;11.40;99.90;;;;;;5042827;28;20428;-72
2022/08/22 00:31:42;;;;;;;0.00;0.00;;;11.50;99.90;;;;;;5039242;28;20029;-72
2022/08/22 00:34:31;;;;;;;0.00;0.00;;;11.50;99.90;;;;;;5039816;28;20048;-72
2022/08/22 00:37:32;;;;;;;0.00;0.00;;;11.60;99.90;;;;;;5042726;28;20485;-74
2022/08/22 00:40:28;;;;;;;0.00;0.00;;;11.60;99.90;;;;;;4979068;28;20054;-73
2022/08/22 00:43:28;;;;;;;0.00;0.00;;;11.80;99.90;;;;;;5039627;28;20560;-73
2022/08/22 00:46:29;;;;;;;0.00;0.00;;;11.90;99.90;;;;;;5041872;28;20080;-73
2022/08/22 00:49:02;;;;;;;0.00;0.00;;;12.00;99.90;;;;;;5040284;28;20021;-74
2022/08/22 00:51:53;;;;;;;0.00;0.00;;;12.10;99.90;;;;;;5036666;28;20034;-74
2022/08/22 00:54:43;;;;;;;0.00;0.00;;;12.30;99.90;;;;;;5036951;28;20489;-72
2022/08/22 00:57:21;;;;;;;0.00;0.00;;;12.50;99.90;;;;;;5041000;28;20033;-73
2022/08/22 01:00:12;;;;;;;0.00;0.00;;;12.70;99.90;;;;;;5034044;28;20546;-72
2022/08/22 01:02:49;;;;;;;0.00;0.00;;;12.90;99.90;;;;;;5037510;28;20083;-72
2022/08/22 01:05:38;;;;;;;0.00;0.00;;;13.10;99.90;;;;;;5041405;28;20047;-74
2022/08/22 01:08:21;;;;;;;0.00;0.00;;;13.40;99.90;;;;;;5042003;28;20021;-73
2022/08/22 01:10:54;;;;;;;0.03;0.03;;;13.80;99.90;;;;;;5042840;28;20040;-72
2022/08/22 01:13:45;;;;;;;0.00;0.00;;;14.40;86.00;;;;;;5042637;28;20021;-73
2022/08/22 01:16:29;;;;;;;1.52;1.38;;;15.00;77.10;;;;;;5043910;28;20060;-74
2022/08/22 01:19:34;;;;;;;3.13;2.38;;;15.60;61.40;;;;;;5044685;28;20034;-73
2022/08/22 01:22:22;;;;;;;0.00;0.00;;;15.90;59.40;;;;;;5007869;28;20048;-73
2022/08/22 01:25:18;;;;;;;0.30;0.30;;;16.20;58.50;;;;;;5042186;28;20030;-74
2022/08/22 01:28:21;;;;;;;0.10;0.10;;;16.70;58.30;;;;;;5042032;28;20049;-73
2022/08/22 01:31:15;;;;;;;0.75;0.70;;;17.20;55.00;;;;;;5038291;28;20505;-73
2022/08/22 01:34:19;;;;;;;0.20;0.20;;;17.30;54.20;;;;;;5043733;28;20107;-73
2022/08/22 01:37:14;;;;;;;4.47;2.20;;;17.40;53.00;;;;;;5032766;28;20038;-73
2022/08/22 01:39:59;;;;;;;2.00;1.17;;;17.10;53.60;;;;;;5041815;28;20021;-73
2022/08/22 01:42:46;;;;;;;1.63;1.52;;;16.70;53.40;;;;;;5038703;28;20032;-73
2022/08/22 01:45:35;;;;;;;2.80;1.73;;;16.60;54.30;;;;;;5037718;28;20120;-74
2022/08/22 01:48:04;;;;;;;0.45;0.45;;;16.80;54.10;;;;;;5035336;28;20032;-73
2022/08/22 01:50:40;;;;;;;11.93;9.57;;;17.00;53.00;;;;;;5035373;28;20036;-73
2022/08/22 01:53:15;;;;;;;0.95;0.95;;;17.20;52.70;;;;;;5034082;28;20009;-74
2022/08/22 01:55:51;;;;;;;2.00;0.65;;;17.60;51.20;;;;;;5039586;28;20021;-75
2022/08/22 01:58:22;;;;;;;2.13;1.00;;;18.00;50.00;;;;;;5032857;28;20029;-74
2022/08/22 02:00:57;;;;;;;2.05;1.85;;;17.80;49.10;;;;;;5026485;28;20033;-74
2022/08/22 02:04:02;;;;;;;2.20;1.40;;;17.90;49.40;;;;;;5023357;28;20075;-74
2022/08/22 02:06:46;;;;;;;3.55;0.85;;;18.40;48.00;;;;;;5036813;28;20037;-74
2022/08/22 02:09:43;;;;;;;0.10;0.10;;;18.20;47.40;;;;;;5028031;28;20021;-74
2022/08/22 02:12:43;;;;;;;0.10;0.10;;;18.30;47.60;;;;;;5030514;28;20060;-74
2022/08/22 02:15:31;;;;;;;0.00;0.00;;;19.00;46.80;;;;;;5026343;28;20099;-74
2022/08/22 02:18:09;;;;;;;0.15;0.10;;;19.30;45.70;;;;;;5033331;28;20041;-74
2022/08/22 02:21:06;;;;;;;1.98;1.13;;;19.50;44.80;;;;;;5029463;28;20175;-73
2022/08/22 02:24:00;;;;;;;0.43;0.43;;;19.40;45.00;;;;;;5026453;28;20029;-73
2022/08/22 02:27:05;;;;;;;0.40;0.22;;;19.30;44.90;;;;;;5019311;28;20064;-73
2022/08/22 02:29:41;;;;;;;1.45;0.52;;;19.40;44.20;;;;;;5012635;28;20065;-75
2022/08/22 02:32:27;;;;;;;4.05;0.47;;;19.00;44.90;;;;;;5004064;28;20030;-74
2022/08/22 02:35:26;;;;;;;0.00;0.00;;;19.40;45.10;;;;;;5023177;28;20026;-75
2022/08/22 02:38:08;;;;;;;0.32;0.17;;;20.30;43.50;;;;;;5012790;28;20033;-74
2022/08/22 02:40:46;;;;;;;1.60;1.55;;;20.40;43.60;;;;;;5017294;28;20033;-74
2022/08/22 02:43:36;;;;;;;0.55;0.28;;;20.20;44.20;;;;;;5025514;28;20021;-75
2022/08/22 02:46:25;;;;;;;2.58;2.38;;;20.30;43.90;;;;;;5021452;28;20095;-73
2022/08/22 02:49:16;;;;;;;0.00;0.00;;;19.90;44.30;;;;;;5024712;28;20033;-73
2022/08/22 02:52:05;;;;;;;0.82;0.68;;;20.00;45.70;;;;;;5033952;28;20022;-75
2022/08/22 02:54:57;;;;;;;1.13;1.05;;;20.20;44.90;;;;;;5025029;28;20029;-73
2022/08/22 02:57:41;;;;;;;30.15;2.30;;;19.90;44.90;;;;;;5021330;28;20022;-73
2022/08/22 03:00:26;;;;;;;0.55;0.38;;;19.60;46.10;;;;;;5023573;28;20083;-73
2022/08/22 03:02:58;;;;;;;0.70;0.68;;;19.90;45.30;;;;;;5023710;28;20559;-73
2022/08/22 03:05:37;;;;;;;0.10;0.10;;;20.20;44.60;;;;;;5021345;28;20402;-73
2022/08/22 03:08:17;;;;;;;1.15;0.60;;;20.00;45.00;;;;;;5022561;28;20030;-75
2022/08/22 03:10:59;;;;;;;0.00;0.00;;;19.40;45.70;;;;;;5027581;28;20509;-74
2022/08/22 03:13:59;;;;;;;4.70;1.17;;;19.10;46.60;;;;;;5030129;28;20473;-74
2022/08/22 03:16:51;;;;;;;2.78;1.63;;;18.70;46.60;;;;;;4996645;28;20482;-74
2022/08/22 03:19:20;;;;;;;1.58;0.93;;;18.70;47.60;;;;;;5019435;28;20067;-73
2022/08/22 03:22:10;;;;;;;1.67;1.13;;;18.80;47.10;;;;;;5027554;28;20034;-73
2022/08/22 03:24:44;;;;;;;0.20;0.00;;;19.00;47.00;;;;;;5024844;28;20347;-73
2022/08/22 03:27:10;;;;;;;0.22;0.22;;;19.10;46.60;;;;;;5025312;28;20037;-73
2022/08/22 03:29:44;;;;;;;0.20;0.20;;;19.10;45.50;;;;;;5032605;28;20060;-76
2022/08/22 03:32:20;;;;;;;1.13;0.75;;;19.10;45.10;;;;;;5019088;28;20030;-73
2022/08/22 03:35:08;;;;;;;0.63;0.40;;;19.20;45.30;;;;;;5022841;28;20103;-75
2022/08/22 03:37:45;;;;;;;2.20;0.55;;;19.30;45.50;;;;;;5023638;28;20029;-72
2022/08/22 03:40:33;;;;;;;1.33;0.43;;;19.30;44.00;;;;;;5026196;28;20114;-74
2022/08/22 03:43:07;;;;;;;0.00;0.00;;;19.30;44.70;;;;;;5024087;28;20304;-74
2022/08/22 03:45:39;;;;;;;4.03;1.20;;;19.50;44.50;;;;;;5021795;28;20469;-72
2022/08/22 03:48:12;;;;;;;0.20;0.20;;;19.80;43.20;;;;;;5024848;28;20037;-75
2022/08/22 03:50:50;;;;;;;3.00;1.83;;;19.80;43.50;;;;;;5034536;28;21364;-75
2022/08/22 03:53:53;;;;;;;1.42;0.90;;;19.60;43.20;;;;;;5030573;28;20485;-76
2022/08/22 03:56:53;;;;;;;0.00;0.00;;;19.70;42.40;;;;;;5020303;28;20367;-75
2022/08/22 03:59:57;;;;;;;1.60;0.75;;;19.70;44.60;;;;;;5019237;28;20031;-74
2022/08/22 04:03:15;;;;;;;0.65;0.52;;;20.00;43.50;;;;;;5021260;28;20036;-73
2022/08/22 04:05:49;;;;;;;5.47;1.27;;;20.00;41.80;;;;;;5020236;28;20068;-74
2022/08/22 04:08:51;;;;;;;0.00;0.00;;;20.00;42.20;;;;;;5022503;28;20276;-74
2022/08/22 04:11:40;;;;;;;2.00;1.05;;;20.20;40.30;;;;;;4996527;28;20432;-75
2022/08/22 04:14:22;;;;;;;1.98;0.73;;;20.30;39.60;;;;;;5012252;28;20091;-74
2022/08/22 04:16:55;;;;;;;3.00;0.85;;;20.50;39.10;;;;;;5023809;28;20045;-74
2022/08/22 04:19:40;;;;;;;0.13;0.13;;;20.70;37.80;;;;;;5017908;28;20377;-75
2022/08/22 04:22:37;;;;;;;5.07;0.50;;;20.60;37.50;;;;;;5013112;28;20034;-75
2022/08/22 04:25:26;;;;;;;1.50;0.30;;;20.70;37.40;;;;;;5018708;28;20025;-73
2022/08/22 04:28:22;;;;;;;0.80;0.40;;;20.40;36.60;;;;;;5025553;28;20512;-74
2022/08/22 04:30:53;;;;;;;0.57;0.52;;;20.60;37.50;;;;;;5021434;28;20068;-75
2022/08/22 04:33:49;;;;;;;2.60;0.55;;;20.80;36.90;;;;;;5019172;28;20057;-74
2022/08/22 04:36:25;;;;;;;0.08;0.08;;;20.90;36.80;;;;;;5025432;28;20095;-73
2022/08/22 04:38:57;;;;;;;0.00;0.00;;;20.90;37.40;;;;;;5034589;28;20032;-73
2022/08/22 04:41:37;;;;;;;0.73;0.50;;;21.00;36.60;;;;;;5031052;28;20025;-73
2022/08/22 04:44:13;;;;;;;9.05;3.15;;;21.30;36.10;;;;;;5023391;28;20589;-73
2022/08/22 04:46:52;;;;;;;6.93;1.67;;;21.20;35.50;;;;;;5020787;28;20022;-76
2022/08/22 04:49:46;;;;;;;2.78;0.75;;;21.20;35.80;;;;;;5027434;28;20474;-73
2022/08/22 04:52:48;;;;;;;1.63;0.70;;;21.20;35.80;;;;;;5022430;28;20129;-73
2022/08/22 04:55:32;;;;;;;0.30;0.30;;;21.20;36.20;;;;;;5025894;28;20048;-73
2022/08/22 04:58:10;;;;;;;5.20;1.13;;;21.30;36.40;;;;;;5028262;28;20038;-75
2022/08/22 05:00:48;;;;;;;3.72;0.95;;;21.70;36.40;;;;;;5026172;28;20429;-74
2022/08/22 05:03:18;;;;;;;19.52;3.33;;;21.60;35.90;;;;;;5024521;28;20469;-74
2022/08/22 05:05:47;;;;;;;0.45;0.45;;;21.80;34.80;;;;;;5026124;28;20504;-74
2022/08/22 05:08:23;;;;;;;11.18;1.10;;;21.90;34.90;;;;;;5024836;28;20044;-74
2022/08/22 05:10:52;;;;;;;3.22;0.73;;;21.80;34.50;;;;;;5033072;28;20036;-73
2022/08/22 05:13:31;;;;;;;10.88;0.40;;;22.00;32.20;;;;;;5024037;28;20560;-76
2022/08/22 05:16:05;;;;;;;0.00;0.00;;;21.90;31.30;;;;;;5029696;28;20028;-73
2022/08/22 05:18:41;;;;;;;0.13;0.10;;;22.00;31.20;;;;;;5004225;28;20026;-73
2022/08/22 05:21:10;;;;;;;0.00;0.00;;;22.10;32.70;;;;;;5008163;28;20034;-72
2022/08/22 05:24:05;;;;;;;1.95;0.75;;;22.10;32.90;;;;;;5007142;28;20057;-74
2022/08/22 05:26:39;;;;;;;0.47;0.17;;;22.10;33.40;;;;;;5001707;28;20089;-73
2022/08/22 05:29:12;;;;;;;0.30;0.30;;;22.20;33.00;;;;;;5018308;28;20030;-74
2022/08/22 05:31:44;;;;;;;0.00;0.00;;;22.00;32.70;;;;;;5003777;28;20467;-74
2022/08/22 05:34:15;;;;;;;0.22;0.10;;;22.20;33.60;;;;;;5003793;28;20041;-74
2022/08/22 05:36:59;;;;;;;2.25;0.47;;;22.30;31.70;;;;;;5005286;28;20444;-73
2022/08/22 05:39:28;;;;;;;0.00;0.00;;;22.10;31.40;;;;;;5003749;28;20102;-74
2022/08/22 05:42:02;;;;;;;0.00;0.00;;;22.30;32.30;;;;;;5008068;28;20042;-76
2022/08/22 05:44:37;;;;;;;0.28;0.28;;;22.20;31.80;;;;;;5008176;28;20370;-73
2022/08/22 05:47:17;;;;;;;0.20;0.20;;;22.20;31.10;;;;;;5004324;28;20018;-75
2022/08/22 05:49:50;;;;;;;0.00;0.00;;;22.30;30.50;;;;;;5010095;28;20025;-75
2022/08/22 05:52:38;;;;;;;0.00;0.00;;;22.20;30.30;;;;;;5006550;28;20027;-75
2022/08/22 05:55:25;;;;;;;6.20;0.43;;;22.30;31.70;;;;;;5006720;28;20030;-75
2022/08/22 05:58:20;;;;;;;0.13;0.00;;;22.40;30.60;;;;;;5014310;28;20077;-75
2022/08/22 06:00:56;;;;;;;0.00;0.00;;;22.30;29.90;;;;;;5016889;28;20079;-74
2022/08/22 06:03:41;;;;;;;0.00;0.00;;;22.30;30.30;;;;;;5009258;28;20061;-74
2022/08/22 06:06:15;;;;;;;0.47;0.28;;;22.60;30.70;;;;;;5008803;28;20101;-74
2022/08/22 06:09:02;;;;;;;1.65;0.75;;;22.70;27.20;;;;;;5005772;28;20415;-76
2022/08/22 06:11:39;;;;;;;0.10;0.10;;;22.50;26.40;;;;;;5006760;28;20033;-74
2022/08/22 06:14:41;;;;;;;0.47;0.40;;;22.80;26.30;;;;;;4995230;28;20120;-74
2022/08/22 06:17:30;;;;;;;0.73;0.25;;;22.70;25.40;;;;;;5012888;28;20042;-75
2022/08/22 06:19:57;;;;;;;0.10;0.10;;;22.80;26.80;;;;;;5025136;28;20044;-73
2022/08/22 06:22:35;;;;;;;0.00;0.00;;;22.60;27.00;;;;;;5025235;28;20029;-74
2022/08/22 06:25:18;;;;;;;0.10;0.00;;;22.60;26.40;;;;;;5019998;28;20084;-74
2022/08/22 06:27:48;;;;;;;0.30;0.22;;;22.80;27.40;;;;;;5031162;28;20039;-73
2022/08/22 06:30:16;;;;;;;0.00;0.00;;;22.90;26.30;;;;;;5026138;28;20013;-73
2022/08/22 06:32:52;;;;;;;0.10;0.10;;;22.90;25.90;;;;;;5026055;28;20086;-74
2022/08/22 06:36:29;;;;;;;13.93;1.85;;;22.80;26.10;;;;;;5022325;28;20030;-74
2022/08/22 06:38:19;;;;;;;0.65;0.10;;;23.00;25.50;;;;;;5020978;28;20125;-74
2022/08/22 06:40:45;;;;;;;0.00;0.00;;;23.00;25.80;;;;;;5021128;28;20033;-74
2022/08/22 06:43:12;;;;;;;0.00;0.00;;;22.90;25.60;;;;;;5021490;28;20036;-73
2022/08/22 06:45:44;;;;;;;0.00;0.00;;;23.00;25.20;;;;;;5022678;28;20508;-76
2022/08/22 06:48:17;;;;;;;0.00;0.00;;;22.80;24.40;;;;;;5021830;28;20108;-73
2022/08/22 06:50:50;;;;;;;0.00;0.00;;;22.80;24.30;;;;;;5024782;28;20347;-75
2022/08/22 06:53:18;;;;;;;0.00;0.00;;;23.10;24.00;;;;;;5026049;28;21318;-74
2022/08/22 06:55:53;;;;;;;0.00;0.00;;;23.20;25.00;;;;;;5027278;28;20032;-75
2022/08/22 06:58:43;;;;;;;0.00;0.00;;;23.30;25.00;;;;;;5028715;28;20201;-74
2022/08/22 07:01:20;;;;;;;12.15;2.35;;;23.50;25.50;;;;;;5017237;28;20034;-74
2022/08/22 07:03:52;;;;;;;0.00;0.00;;;23.60;25.20;;;;;;5021865;28;20021;-74
2022/08/22 07:06:34;;;;;;;0.00;0.00;;;23.60;25.40;;;;;;5018881;28;20029;-74
2022/08/22 07:09:05;;;;;;;0.00;0.00;;;23.80;25.90;;;;;;5026429;28;20029;-75
2022/08/22 07:11:39;;;;;;;2.92;1.67;;;23.80;25.70;;;;;;5029717;28;20026;-75
2022/08/22 07:14:13;;;;;;;0.40;0.38;;;23.50;25.00;;;;;;5018364;28;20354;-72
2022/08/22 07:16:52;;;;;;;0.00;0.00;;;23.60;25.10;;;;;;5029767;28;20420;-75
2022/08/22 07:19:33;;;;;;;0.82;0.08;;;24.00;24.80;;;;;;5027144;28;20544;-74
2022/08/22 07:22:22;;;;;;;0.35;0.30;;;23.80;24.10;;;;;;5028080;28;20033;-74
2022/08/22 07:24:55;;;;;;;0.20;0.20;;;23.80;23.20;;;;;;5020730;28;20582;-74
2022/08/22 07:27:28;;;;;;;0.45;0.20;;;23.70;22.30;;;;;;5029834;28;20053;-73
2022/08/22 07:30:12;;;;;;;0.00;0.00;;;23.80;22.30;;;;;;5021884;28;20045;-74
2022/08/22 07:33:05;;;;;;;0.00;0.00;;;24.00;21.90;;;;;;5029673;28;20485;-76
2022/08/22 07:35:48;;;;;;;0.05;0.05;;;24.20;22.20;;;;;;5010568;28;20037;-74
2022/08/22 07:38:30;;;;;;;1.30;1.25;;;24.10;22.60;;;;;;5024832;28;20409;-75
2022/08/22 07:41:05;;;;;;;0.00;0.00;;;24.10;22.70;;;;;;5021618;28;20030;-74
2022/08/22 07:43:39;;;;;;;0.00;0.00;;;24.10;22.30;;;;;;5032771;28;20021;-74
2022/08/22 07:46:25;;;;;;;2.47;2.33;;;24.10;22.60;;;;;;5026328;28;20043;-74
2022/08/22 07:49:02;;;;;;;0.00;0.00;;;24.20;23.30;;;;;;5023545;28;20374;-74
2022/08/22 07:51:38;;;;;;;0.82;0.40;;;24.40;23.70;;;;;;5021642;28;20080;-74
2022/08/22 07:54:12;;;;;;;0.17;0.17;;;24.40;22.70;;;;;;5018368;28;20048;-73
2022/08/22 07:56:45;;;;;;;0.15;0.13;;;24.30;22.90;;;;;;5019424;28;20187;-75
2022/08/22 07:59:18;;;;;;;2.08;1.85;;;24.40;22.50;;;;;;5027974;28;20180;-75
2022/08/22 08:01:55;;;;;;;0.95;0.47;;;24.40;22.50;;;;;;5026559;28;20433;-73
2022/08/22 08:04:31;;;;;;;2.83;2.72;;;24.40;23.60;;;;;;5021923;28;20140;-73
2022/08/22 08:07:04;;;;;;;0.00;0.00;;;24.80;24.50;;;;;;5022128;28;20518;-74
2022/08/22 08:09:34;;;;;;;0.38;0.38;;;25.10;24.60;;;;;;5025262;28;20527;-74
2022/08/22 08:12:04;;;;;;;24.55;21.83;;;25.10;24.30;;;;;;5023133;28;20044;-73
2022/08/22 08:14:32;;;;;;;0.00;0.00;;;25.20;24.60;;;;;;5025104;28;20044;-73
2022/08/22 08:17:04;;;;;;;0.00;0.00;;;25.30;24.40;;;;;;5029307;28;20050;-73
2022/08/22 08:19:34;;;;;;;0.00;0.00;;;25.50;23.50;;;;;;5026950;28;20034;-73
2022/08/22 08:22:01;;;;;;;8.93;8.35;;;25.70;22.90;;;;;;5025858;28;20038;-73
2022/08/22 08:24:36;;;;;;;0.00;0.00;;;25.70;23.20;;;;;;5038056;28;20461;-74
2022/08/22 08:30:23;;;;;;;0.00;0.00;;;25.60;23.40;;;;;;5037203;28;20047;-72
2022/08/22 08:32:56;;;;;;;0.82;0.82;;;26.00;23.40;;;;;;5032798;28;20037;-73
2022/08/22 08:35:34;;;;;;;0.00;0.00;;;25.70;22.90;;;;;;5030375;28;20051;-73
2022/08/22 08:38:11;;;;;;;0.30;0.30;;;25.40;23.80;;;;;;5029608;28;20381;-74
2022/08/22 08:40:52;;;;;;;0.20;0.10;;;25.60;23.70;;;;;;5016150;28;20052;-73
2022/08/22 08:43:33;;;;;;;0.10;0.10;;;25.60;23.10;;;;;;5030578;28;20026;-73
2022/08/22 08:46:13;;;;;;;0.20;0.10;;;25.70;23.30;;;;;;5026838;28;20030;-74
2022/08/22 08:48:44;;;;;;;0.00;0.00;;;25.90;23.30;;;;;;5026700;28;20030;-73
2022/08/22 08:51:35;;;;;;;1.55;0.80;;;26.00;23.80;;;;;;5022795;28;20037;-74
2022/08/22 08:54:25;;;;;;;0.10;0.10;;;26.00;23.10;;;;;;5030439;28;20041;-74
2022/08/22 08:57:02;;;;;;;0.10;0.10;;;26.10;23.20;;;;;;5025235;28;20422;-74
2022/08/22 09:00:00;;;;;;;0.00;0.00;;;26.40;23.30;;;;;;5009405;28;20039;-74
2022/08/22 09:02:57;;;;;;;0.00;0.00;;;26.50;22.80;;;;;;5022785;28;20374;-75
2022/08/22 09:06:09;;;;;;;0.00;0.00;;;26.60;22.00;;;;;;5026140;28;20022;-74
2022/08/22 09:08:47;;;;;;;0.00;0.00;;;26.70;22.10;;;;;;5003503;28;20150;-73
2022/08/22 09:11:35;;;;;;;0.00;0.00;;;26.70;21.80;;;;;;5005615;28;20033;-73
2022/08/22 09:14:43;;;;;;;0.00;0.00;;;26.70;22.10;;;;;;5024283;28;20382;-73
2022/08/22 09:17:33;;;;;;;0.88;0.80;;;26.70;21.80;;;;;;5022386;28;20127;-74
2022/08/22 09:20:09;;;;;;;0.00;0.00;;;26.70;20.80;;;;;;5021834;28;20041;-76
2022/08/22 09:23:09;;;;;;;0.00;0.00;;;26.60;22.00;;;;;;5025584;28;20080;-73
2022/08/22 09:25:48;;;;;;;0.08;0.08;;;26.60;21.20;;;;;;5026773;28;20474;-74
2022/08/22 09:28:38;;;;;;;0.00;0.00;;;26.60;20.70;;;;;;5025532;28;20029;-74
2022/08/22 09:31:04;;;;;;;0.00;0.00;;;26.40;20.80;;;;;;5025239;28;20405;-75
2022/08/22 09:34:09;;;;;;;0.00;0.00;;;26.40;21.50;;;;;;5024008;28;20363;-74
2022/08/22 09:36:45;;;;;;;0.00;0.00;;;26.40;20.60;;;;;;5023682;28;20125;-74
2022/08/22 09:39:42;;;;;;;0.00;0.00;;;26.50;20.90;;;;;;5017398;28;20458;-74
2022/08/22 09:42:29;;;;;;;0.00;0.00;;;26.50;20.70;;;;;;5032392;28;20029;-73
2022/08/22 09:45:14;;;;;;;0.00;0.00;;;26.60;21.50;;;;;;5024454;28;20040;-74
2022/08/22 09:48:20;;;;;;;0.00;0.00;;;26.50;21.60;;;;;;5028803;28;20017;-74
2022/08/22 09:51:10;;;;;;;0.00;0.00;;;26.50;21.60;;;;;;5036174;28;20033;-74
2022/08/22 09:53:49;;;;;;;0.00;0.00;;;26.50;21.60;;;;;;5031096;28;20067;-74
2022/08/22 09:56:24;;;;;;;0.00;0.00;;;26.70;21.80;;;;;;5026394;28;20022;-74
2022/08/22 09:59:08;;;;;;;0.00;0.00;;;26.70;21.70;;;;;;5030451;28;20032;-74
2022/08/22 10:01:58;;;;;;;0.00;0.00;;;26.60;21.70;;;;;;5032158;28;20124;-75
2022/08/22 10:04:42;;;;;;;0.00;0.00;;;26.50;21.20;;;;;;5026288;28;20017;-74
2022/08/22 10:07:30;;;;;;;0.00;0.00;;;26.40;20.80;;;;;;5029025;28;20025;-74
2022/08/22 10:10:19;;;;;;;0.00;0.00;;;26.40;20.50;;;;;;5025792;28;20064;-75
2022/08/22 10:13:04;;;;;;;0.00;0.00;;;26.30;20.20;;;;;;5026898;28;20040;-73
2022/08/22 10:15:53;;;;;;;0.00;0.00;;;26.30;20.60;;;;;;5021406;28;20156;-73
2022/08/22 10:18:25;;;;;;;0.00;0.00;;;26.20;19.10;;;;;;5003778;28;20944;-73
2022/08/22 10:21:09;;;;;;;0.00;0.00;;;26.20;19.30;;;;;;5007758;28;20038;-76
2022/08/22 10:23:43;;;;;;;0.00;0.00;;;26.00;20.00;;;;;;5003424;28;20025;-74
2022/08/22 10:26:12;;;;;;;0.00;0.00;;;26.10;19.40;;;;;;5004121;28;20075;-75
2022/08/22 10:28:55;;;;;;;0.00;0.00;;;26.20;19.50;;;;;;4999713;28;20041;-75
2022/08/22 10:31:43;;;;;;;1.23;1.23;;;26.10;19.90;;;;;;5003680;28;20042;-73
2022/08/22 10:34:18;;;;;;;0.00;0.00;;;26.10;19.60;;;;;;5002227;28;20030;-73
2022/08/22 10:36:58;;;;;;;0.28;0.17;;;26.10;20.70;;;;;;4999708;28;20133;-75
2022/08/22 10:39:33;;;;;;;0.40;0.35;;;26.20;20.60;;;;;;5004234;28;20390;-75
2022/08/22 10:42:18;;;;;;;0.00;0.00;;;26.10;21.30;;;;;;5004442;28;20032;-73
2022/08/22 10:45:12;;;;;;;1.40;1.30;;;26.20;21.50;;;;;;5005116;28;20064;-74
2022/08/22 10:48:01;;;;;;;0.00;0.00;;;26.40;22.00;;;;;;5008727;28;20024;-75
2022/08/22 10:50:45;;;;;;;0.00;0.00;;;26.50;22.20;;;;;;5009705;28;20045;-76
2022/08/22 10:53:29;;;;;;;0.10;0.10;;;26.40;22.20;;;;;;5001853;28;20482;-74
2022/08/22 10:56:25;;;;;;;0.30;0.30;;;26.40;22.80;;;;;;5007267;28;20022;-75
2022/08/22 10:58:55;;;;;;;3.17;2.65;;;26.30;23.90;;;;;;4994057;28;20033;-74
2022/08/22 11:01:26;;;;;;;0.10;0.10;;;26.30;24.40;;;;;;5010160;28;20038;-72
2022/08/22 11:04:11;;;;;;;1.42;0.88;;;26.30;24.40;;;;;;5015052;28;20091;-74
2022/08/22 11:06:48;;;;;;;0.03;0.03;;;26.40;24.70;;;;;;4997122;28;20038;-74
2022/08/22 11:09:26;;;;;;;0.35;0.35;;;26.40;24.90;;;;;;4999838;28;20112;-76
2022/08/22 11:12:01;;;;;;;0.00;0.00;;;26.40;24.60;;;;;;4997750;28;20348;-73
2022/08/22 11:15:03;;;;;;;0.00;0.00;;;26.40;25.30;;;;;;5000567;28;20025;-73
2022/08/22 11:17:56;;;;;;;1.63;1.52;;;26.30;24.80;;;;;;5022898;28;20054;-75
2022/08/22 11:20:41;;;;;;;1.00;0.63;;;26.40;24.40;;;;;;5029777;28;20034;-73
2022/08/22 11:24:02;;;;;;;0.22;0.20;;;26.30;24.80;;;;;;5028331;28;20465;-74
2022/08/22 11:26:42;;;;;;;3.72;3.03;;;26.30;25.40;;;;;;4999094;28;20600;-74
2022/08/22 11:29:28;;;;;;;0.40;0.40;;;26.30;25.50;;;;;;5030517;28;20532;-75
2022/08/22 11:31:54;;;;;;;0.95;0.88;;;26.30;25.50;;;;;;5027030;28;20033;-75
2022/08/22 11:34:39;;;;;;;0.65;0.35;;;26.30;25.20;;;;;;5016007;28;20033;-74
2022/08/22 11:37:25;;;;;;;0.00;0.00;;;26.10;25.30;;;;;;5018665;28;20609;-75
2022/08/22 11:40:00;;;;;;;0.80;0.70;;;26.10;25.00;;;;;;5034476;28;20081;-76
2022/08/22 11:42:57;;;;;;;2.85;2.65;;;26.10;25.30;;;;;;5030068;28;20025;-76
2022/08/22 11:45:34;;;;;;;0.63;0.63;;;26.10;26.00;;;;;;5001612;28;20370;-75
2022/08/22 11:48:34;;;;;;;1.80;0.22;;;26.00;25.60;;;;;;5036207;28;20444;-74
2022/08/22 11:51:41;;;;;;;0.00;0.00;;;26.10;25.80;;;;;;5031906;28;20025;-75
2022/08/22 11:54:26;;;;;;;0.10;0.10;;;26.00;26.00;;;;;;5027700;28;20021;-76
2022/08/22 11:57:26;;;;;;;0.00;0.00;;;26.00;25.90;;;;;;5027181;28;20385;-75
2022/08/22 11:59:57;;;;;;;0.00;0.00;;;26.00;25.30;;;;;;5018276;28;20049;-75
2022/08/22 12:02:53;;;;;;;0.00;0.00;;;25.80;25.40;;;;;;5018742;28;20468;-76
2022/08/22 12:05:35;;;;;;;0.05;0.05;;;25.80;25.60;;;;;;5016993;28;20022;-76
2022/08/22 12:08:01;;;;;;;0.20;0.10;;;25.90;25.80;;;;;;5023595;28;20029;-75
2022/08/22 12:10:35;;;;;;;0.00;0.00;;;26.00;26.00;;;;;;5022803;28;20014;-75
2022/08/22 12:13:39;;;;;;;0.00;0.00;;;25.80;25.70;;;;;;5024898;28;20056;-74
2022/08/22 12:16:18;;;;;;;0.50;0.20;;;25.70;26.00;;;;;;5017614;28;20072;-75
2022/08/22 12:18:54;;;;;;;0.10;0.10;;;25.60;25.70;;;;;;5019785;28;20072;-75
2022/08/22 12:21:33;;;;;;;0.00;0.00;;;25.60;26.30;;;;;;5024705;28;20132;-75
2022/08/22 12:24:18;;;;;;;0.10;0.10;;;25.60;26.20;;;;;;5020865;28;20025;-73
2022/08/22 12:27:20;;;;;;;0.10;0.10;;;25.60;26.40;;;;;;5020047;28;20068;-73
2022/08/22 12:30:27;;;;;;;0.00;0.00;;;25.50;26.10;;;;;;5015044;28;20025;-73
2022/08/22 12:33:15;;;;;;;0.93;0.77;;;25.30;26.10;;;;;;5022949;28;20407;-74
2022/08/22 12:36:14;;;;;;;0.65;0.20;;;25.30;26.10;;;;;;5024880;28;20450;-73
2022/08/22 12:38:52;;;;;;;0.17;0.17;;;25.30;25.90;;;;;;5026319;28;20021;-73
2022/08/22 12:41:40;;;;;;;0.00;0.00;;;25.20;26.20;;;;;;5027129;28;20026;-74
2022/08/22 12:44:19;;;;;;;0.80;0.10;;;25.10;25.90;;;;;;5030503;28;20050;-74
2022/08/22 12:47:03;;;;;;;0.00;0.00;;;25.10;26.00;;;;;;5030174;28;20492;-73
2022/08/22 12:49:47;;;;;;;0.00;0.00;;;25.00;26.40;;;;;;5029755;28;20470;-74
2022/08/22 12:52:35;;;;;;;0.65;0.30;;;25.00;26.50;;;;;;5031117;28;20062;-73
2022/08/22 12:55:11;;;;;;;0.20;0.15;;;25.00;26.50;;;;;;5029542;28;20028;-73
2022/08/22 12:57:46;;;;;;;0.00;0.00;;;25.00;26.50;;;;;;5040254;28;20025;-73
2022/08/22 13:00:39;;;;;;;0.45;0.45;;;24.90;26.50;;;;;;5034743;28;20025;-73
2022/08/22 13:03:10;;;;;;;0.30;0.20;;;24.90;26.70;;;;;;5035654;28;20613;-72
2022/08/22 13:05:38;;;;;;;1.60;0.57;;;24.80;26.60;;;;;;5032264;28;20025;-72
2022/08/22 13:08:11;;;;;;;0.00;0.00;;;24.70;26.50;;;;;;5023022;28;20026;-72
2022/08/22 13:11:06;;;;;;;1.65;1.55;;;24.70;26.60;;;;;;5030266;28;20021;-73
2022/08/22 13:13:50;;;;;;;0.98;0.98;;;24.70;26.80;;;;;;5030114;28;20498;-73
2022/08/22 13:16:19;;;;;;;0.00;0.00;;;24.60;27.00;;;;;;5032408;28;20034;-73
2022/08/22 13:18:52;;;;;;;0.00;0.00;;;24.60;27.20;;;;;;5026923;28;20485;-74
2022/08/22 13:21:36;;;;;;;7.13;3.13;;;24.40;27.30;;;;;;5029621;28;20212;-74
2022/08/22 13:24:10;;;;;;;3.83;0.20;;;24.40;27.60;;;;;;5026357;28;20025;-73
2022/08/22 13:26:48;;;;;;;0.00;0.00;;;24.30;27.30;;;;;;5027751;28;20017;-74
2022/08/22 13:29:21;;;;;;;0.00;0.00;;;24.20;27.60;;;;;;5030716;28;20148;-74
2022/08/22 13:31:54;;;;;;;0.00;0.00;;;24.20;27.60;;;;;;5036658;28;20033;-74
2022/08/22 13:34:45;;;;;;;0.00;0.00;;;24.20;27.90;;;;;;5033215;28;20021;-74
2022/08/22 13:37:16;;;;;;;0.00;0.00;;;24.10;27.90;;;;;;5028270;28;20040;-73
2022/08/22 13:39:45;;;;;;;0.00;0.00;;;24.10;27.90;;;;;;5041329;28;20031;-74
2022/08/22 13:42:20;;;;;;;0.00;0.00;;;23.90;27.90;;;;;;5037849;28;20510;-73
2022/08/22 13:44:52;;;;;;;8.98;4.82;;;23.80;28.30;;;;;;5044312;28;20025;-75
2022/08/22 13:47:22;;;;;;;0.60;0.60;;;23.80;28.50;;;;;;5041824;28;20018;-75
2022/08/22 13:50:01;;;;;;;0.93;0.93;;;23.80;28.90;;;;;;5036303;28;20033;-74
2022/08/22 13:52:33;;;;;;;0.75;0.52;;;23.60;28.50;;;;;;5014879;28;20470;-75
2022/08/22 13:55:09;;;;;;;0.00;0.00;;;23.50;29.20;;;;;;5037112;28;20420;-74
2022/08/22 13:57:38;;;;;;;1.60;1.55;;;23.50;29.50;;;;;;5040079;28;20082;-76
2022/08/22 14:00:48;;;;;;;0.00;0.00;;;23.40;28.20;;;;;;5035073;28;20037;-73
2022/08/22 14:03:24;;;;;;;0.00;0.00;;;23.20;29.40;;;;;;5037457;28;20112;-74
2022/08/22 14:05:56;;;;;;;0.40;0.40;;;23.10;29.80;;;;;;5033363;28;20033;-74
2022/08/22 14:08:34;;;;;;;0.00;0.00;;;23.00;30.00;;;;;;5038762;28;20056;-75